Terminal Aerodrome Forecast
Issued by NWS Detroit/Pontiac, MI

Home | Current Version | Previous Version | Text Only | Print | Product List | Glossary On
Versions: 1 2 3 4 5 6 7 8 9 10 11 12 13 14 15 16 17 18 19 20 21 22 23 24
000
FTUS43 KDTX 252320
TAFDTW
TAF
KDTW 252320Z 2600/2706 19012KT P6SM SCT070 BKN250
     FM260100 16005KT P6SM SCT070 BKN250
     FM260800 18005KT P6SM -SHRA BKN070 BKN150
     FM261200 20008KT P6SM SCT035 BKN100
     FM261500 20009KT P6SM SCT060
     FM261800 21011KT P6SM BKN070
     FM270100 18006KT P6SM SCT080 BKN250=

USA.gov is the U.S. government's official web portal to all federal, state and local government web resources and services.